createdAt,value
2018-07-17T00:01:31.665Z,4.60
2018-07-17T00:03:59.837Z,3.70
2018-07-17T00:06:28.012Z,4.50
2018-07-17T00:08:56.196Z,4.90
2018-07-17T00:11:24.379Z,4.30
2018-07-17T00:13:52.524Z,4.60
2018-07-17T00:16:20.653Z,4.50
2018-07-17T00:18:48.921Z,4.00
2018-07-17T00:21:17.658Z,4.90
2018-07-17T00:23:46.814Z,3.93
2018-07-17T00:26:15.435Z,4.10
2018-07-17T00:28:43.565Z,4.20
2018-07-17T00:31:12.029Z,4.23
2018-07-17T00:33:40.934Z,4.47
2018-07-17T00:36:09.091Z,4.20
2018-07-17T00:38:37.262Z,4.20
2018-07-17T00:41:05.436Z,4.70
2018-07-17T00:43:34.768Z,5.10
2018-07-17T00:46:03.652Z,5.70
2018-07-17T00:48:32.625Z,4.60
2018-07-17T00:51:02.531Z,4.93
2018-07-17T00:53:30.702Z,4.93
2018-07-17T00:55:58.893Z,5.23
2018-07-17T00:58:27.332Z,4.43
2018-07-17T01:00:54.767Z,5.07
2018-07-17T01:03:28.329Z,5.30
2018-07-17T01:06:01.857Z,4.87
2018-07-17T01:08:35.484Z,4.80
2018-07-17T01:11:11.273Z,5.53
2018-07-17T01:13:52.373Z,5.27
2018-07-17T01:16:20.749Z,6.67
2018-07-17T01:18:49.262Z,5.50
2018-07-17T01:21:17.776Z,5.50
2018-07-17T01:23:45.905Z,5.23
2018-07-17T01:26:14.141Z,5.23
2018-07-17T01:28:42.922Z,4.97
2018-07-17T01:31:11.105Z,4.90
2018-07-17T01:33:39.281Z,5.70
2018-07-17T01:36:07.899Z,5.20
2018-07-17T01:38:36.702Z,5.10
2018-07-17T01:41:04.848Z,4.90
2018-07-17T01:43:33.036Z,4.40
2018-07-17T01:46:01.273Z,4.77
2018-07-17T01:48:29.592Z,4.30
2018-07-17T01:50:57.787Z,4.73
2018-07-17T01:53:25.906Z,5.70
2018-07-17T01:55:54.670Z,5.10
2018-07-17T01:58:22.812Z,5.57
2018-07-17T02:00:50.947Z,5.13
2018-07-17T02:03:19.168Z,4.50
2018-07-17T02:05:47.424Z,5.27
2018-07-17T02:08:15.563Z,5.33
2018-07-17T02:10:44.117Z,5.53
2018-07-17T02:13:12.920Z,5.37
2018-07-17T02:15:41.057Z,6.53
2018-07-17T02:18:10.625Z,5.80
2018-07-17T02:20:38.816Z,5.40
2018-07-17T02:23:06.972Z,5.83
2018-07-17T02:25:35.139Z,5.67
2018-07-17T02:28:03.325Z,5.97
2018-07-17T02:30:32.013Z,5.47
2018-07-17T02:33:00.837Z,5.60
2018-07-17T02:35:28.970Z,5.63
2018-07-17T02:37:57.622Z,5.63
2018-07-17T02:40:26.371Z,5.00
2018-07-17T02:42:55.676Z,5.47
2018-07-17T02:45:23.833Z,6.10
2018-07-17T02:47:51.995Z,5.30
2018-07-17T02:50:20.217Z,5.57
2018-07-17T02:52:48.345Z,5.87
2018-07-17T02:55:16.793Z,6.33
2018-07-17T02:57:44.959Z,5.30
2018-07-17T03:00:13.113Z,6.20
2018-07-17T03:02:41.620Z,5.80
2018-07-17T03:05:12.864Z,5.40
2018-07-17T03:07:41.345Z,4.90
2018-07-17T03:10:10.774Z,5.53
2018-07-17T03:12:39.695Z,5.80
2018-07-17T03:15:07.946Z,6.00
2018-07-17T03:17:36.112Z,5.10
2018-07-17T03:20:04.953Z,5.80
2018-07-17T03:22:33.126Z,5.50
2018-07-17T03:25:01.271Z,6.00
2018-07-17T03:27:30.897Z,6.23
2018-07-17T03:30:01.381Z,4.90
2018-07-17T03:32:29.524Z,5.23
2018-07-17T03:34:58.750Z,5.27
2018-07-17T03:37:26.914Z,5.20
2018-07-17T03:39:56.182Z,4.73
2018-07-17T03:42:24.360Z,4.40
2018-07-17T03:44:52.493Z,5.00
2018-07-17T03:47:24.016Z,5.40
2018-07-17T03:49:52.182Z,5.03
2018-07-17T03:52:20.352Z,5.20
2018-07-17T03:54:52.468Z,5.60
2018-07-17T03:57:22.024Z,4.90
2018-07-17T03:59:50.181Z,5.73
2018-07-17T04:02:18.348Z,5.20
2018-07-17T04:04:46.524Z,6.00
2018-07-17T04:07:14.722Z,5.77
2018-07-17T04:09:42.889Z,5.00
2018-07-17T04:12:11.420Z,5.77
2018-07-17T04:14:39.881Z,5.27
2018-07-17T04:17:08.086Z,4.83
2018-07-17T04:19:36.237Z,4.67
2018-07-17T04:22:04.402Z,5.10
2018-07-17T04:24:32.585Z,4.43
2018-07-17T04:27:00.772Z,4.00
2018-07-17T04:29:29.233Z,5.23
2018-07-17T04:31:57.405Z,4.63
2018-07-17T04:34:25.556Z,4.50
2018-07-17T04:36:57.537Z,5.20
2018-07-17T04:39:26.332Z,4.77
2018-07-17T04:41:54.838Z,4.70
2018-07-17T04:44:23.011Z,5.33
2018-07-17T04:46:51.203Z,5.70
2018-07-17T04:49:19.357Z,4.90
2018-07-17T04:51:47.591Z,4.70
2018-07-17T04:54:15.785Z,4.97
2018-07-17T04:56:44.935Z,5.63
2018-07-17T04:59:13.294Z,5.10
2018-07-17T05:01:42.067Z,4.70
2018-07-17T05:04:11.153Z,4.90
2018-07-17T05:06:41.196Z,5.20
2018-07-17T05:09:10.896Z,4.97
2018-07-17T05:11:39.114Z,6.50
2018-07-17T05:14:07.246Z,5.60
2018-07-17T05:16:36.205Z,4.23
2018-07-17T05:19:05.259Z,4.90
2018-07-17T05:21:33.480Z,4.40
2018-07-17T05:24:01.597Z,5.00
2018-07-17T05:26:29.787Z,5.00
2018-07-17T05:28:59.841Z,4.30
2018-07-17T05:31:27.969Z,4.13
2018-07-17T05:33:56.865Z,4.40
2018-07-17T05:36:25.021Z,4.50
2018-07-17T05:38:54.212Z,5.40
2018-07-17T05:41:23.024Z,5.00
2018-07-17T05:43:51.196Z,4.83
2018-07-17T05:46:19.389Z,3.60
2018-07-17T05:48:47.559Z,4.60
2018-07-17T05:51:15.808Z,4.10
2018-07-17T05:53:43.985Z,3.53
2018-07-17T05:56:12.200Z,4.10
2018-07-17T05:58:40.869Z,4.00
2018-07-17T06:01:09.448Z,3.43
2018-07-17T06:03:37.948Z,4.00
2018-07-17T06:06:06.145Z,3.70
2018-07-17T06:08:34.666Z,4.40
2018-07-17T06:11:02.831Z,4.37
2018-07-17T06:13:31.373Z,4.10
2018-07-17T06:16:00.235Z,5.73
2018-07-17T06:18:29.101Z,3.57
2018-07-17T06:20:57.248Z,4.03
2018-07-17T06:23:25.439Z,4.10
2018-07-17T06:25:53.592Z,4.67
2018-07-17T06:28:21.714Z,4.20
2018-07-17T06:30:49.898Z,4.13
2018-07-17T06:33:18.037Z,3.60
2018-07-17T06:35:46.916Z,4.83
2018-07-17T06:38:15.044Z,3.63
2018-07-17T06:40:44.424Z,4.47
2018-07-17T06:43:12.561Z,4.77
2018-07-17T06:45:40.742Z,4.60
2018-07-17T06:48:09.484Z,4.53
2018-07-17T06:50:37.772Z,5.03
2018-07-17T06:53:06.751Z,4.10
2018-07-17T06:55:34.916Z,4.43
2018-07-17T06:58:04.816Z,4.07
2018-07-17T07:00:32.983Z,3.70
2018-07-17T07:03:01.133Z,4.00
2018-07-17T07:05:29.679Z,3.30
2018-07-17T07:07:57.824Z,3.70
2018-07-17T07:10:25.992Z,3.40
2018-07-17T07:12:55.208Z,3.90
2018-07-17T07:15:24.422Z,3.10
2018-07-17T07:17:52.608Z,3.40
2018-07-17T07:20:21.088Z,3.70
2018-07-17T07:22:50.120Z,3.17
2018-07-17T07:25:18.320Z,3.17
2018-07-17T07:27:47.480Z,3.00
2018-07-17T07:30:16.917Z,2.77
2018-07-17T07:32:45.677Z,3.87
2018-07-17T07:35:14.576Z,3.57
2018-07-17T07:37:42.756Z,2.90
2018-07-17T07:40:10.956Z,3.73
2018-07-17T07:42:39.393Z,3.37
2018-07-17T07:45:07.601Z,2.93
2018-07-17T07:47:35.766Z,3.53
2018-07-17T07:50:04.688Z,2.57
2018-07-17T07:52:33.875Z,3.00
2018-07-17T07:55:02.590Z,2.83
2018-07-17T07:57:30.848Z,2.60
2018-07-17T07:59:59.040Z,2.33
2018-07-17T08:02:27.243Z,2.90
2018-07-17T08:04:55.398Z,2.70
2018-07-17T08:07:23.614Z,2.47
2018-07-17T08:09:54.540Z,2.12
2018-07-17T08:12:23.172Z,2.07
2018-07-17T08:14:51.336Z,2.37
2018-07-17T08:17:19.949Z,2.20
2018-07-17T08:19:49.127Z,2.43
2018-07-17T08:22:17.269Z,2.47
2018-07-17T08:24:45.877Z,2.40
2018-07-17T08:27:14.416Z,2.60
2018-07-17T08:29:42.976Z,2.40
2018-07-17T08:32:11.503Z,2.50
2018-07-17T08:34:39.624Z,2.52
2018-07-17T08:37:07.985Z,2.30
2018-07-17T08:39:36.148Z,2.20
2018-07-17T08:42:04.316Z,2.35
2018-07-17T08:44:33.492Z,2.42
2018-07-17T08:47:01.640Z,2.20
2018-07-17T08:49:31.545Z,2.25
2018-07-17T08:51:59.909Z,2.50
2018-07-17T08:54:28.528Z,2.40
2018-07-17T08:56:56.714Z,2.20
2018-07-17T08:59:25.265Z,2.10
2018-07-17T09:01:54.827Z,2.17
2018-07-17T09:04:23.904Z,2.20
2018-07-17T09:06:52.122Z,2.60
2018-07-17T09:09:21.042Z,1.85
2018-07-17T09:11:49.719Z,1.80
2018-07-17T09:14:18.843Z,1.95
2018-07-17T09:16:47.640Z,1.85
2018-07-17T09:19:15.822Z,1.95
2018-07-17T09:21:43.968Z,1.90
2018-07-17T09:24:12.464Z,2.00
2018-07-17T09:26:40.643Z,2.22
2018-07-17T09:29:09.945Z,2.55
2018-07-17T09:31:38.080Z,1.92
2018-07-17T09:34:07.263Z,1.92
2018-07-17T09:36:35.578Z,1.90
2018-07-17T09:39:07.102Z,2.02
2018-07-17T09:41:36.116Z,2.10
2018-07-17T09:44:04.288Z,2.15
2018-07-17T09:46:32.449Z,2.50
2018-07-17T09:49:00.680Z,2.10
2018-07-17T09:51:29.178Z,2.75
2018-07-17T09:53:57.373Z,2.45
2018-07-17T09:56:27.408Z,2.80
2018-07-17T09:58:57.210Z,2.50
2018-07-17T10:02:29.380Z,2.10
2018-07-17T10:04:58.228Z,2.40
2018-07-17T10:07:26.609Z,2.65
2018-07-17T10:09:55.064Z,2.65
2018-07-17T10:12:24.117Z,3.25
2018-07-17T10:14:52.043Z,2.25
2018-07-17T10:17:21.117Z,2.55
2018-07-17T10:19:49.267Z,2.35
2018-07-17T10:22:17.778Z,2.33
2018-07-17T10:24:45.920Z,2.20
2018-07-17T10:27:14.808Z,2.17
2018-07-17T10:29:42.999Z,2.50
2018-07-17T10:32:11.144Z,2.22
2018-07-17T10:34:39.288Z,2.65
2018-07-17T10:37:07.448Z,2.50
2018-07-17T10:39:35.577Z,2.58
2018-07-17T10:42:04.700Z,2.77
2018-07-17T10:44:32.856Z,2.17
2018-07-17T10:47:01.711Z,2.47
2018-07-17T10:49:30.620Z,2.47
2018-07-17T10:51:59.520Z,2.10
2018-07-17T10:54:27.705Z,2.20
2018-07-17T10:56:55.867Z,2.20
2018-07-17T10:59:24.686Z,2.45
2018-07-17T11:01:53.095Z,2.22
2018-07-17T11:04:21.592Z,2.10
2018-07-17T11:06:50.164Z,2.35
2018-07-17T11:09:18.358Z,2.25
2018-07-17T11:11:46.866Z,2.20
2018-07-17T11:14:15.635Z,2.12
2018-07-17T11:16:43.784Z,2.37
2018-07-17T11:19:12.473Z,2.47
2018-07-17T11:21:41.670Z,2.20
2018-07-17T11:24:09.804Z,2.20
2018-07-17T11:26:38.448Z,2.30
2018-07-17T11:29:06.649Z,2.58
2018-07-17T11:31:34.772Z,2.60
2018-07-17T11:34:02.996Z,3.00
2018-07-17T11:36:31.536Z,2.58
2018-07-17T11:39:00.190Z,2.55
2018-07-17T11:41:28.339Z,2.62
2018-07-17T11:43:56.507Z,1.95
2018-07-17T11:46:24.698Z,2.02
2018-07-17T11:48:53.435Z,2.27
2018-07-17T11:51:21.940Z,2.60
2018-07-17T11:53:50.105Z,2.50
2018-07-17T11:56:18.250Z,2.70
2018-07-17T11:58:46.412Z,2.65
2018-07-17T12:01:15.276Z,2.27
2018-07-17T12:03:43.376Z,2.25
2018-07-17T12:06:11.549Z,2.30
2018-07-17T12:08:40.194Z,2.65
2018-07-17T12:11:08.366Z,2.22
2018-07-17T12:13:36.510Z,2.47
2018-07-17T12:16:04.755Z,2.40
2018-07-17T12:18:32.883Z,2.70
2018-07-17T12:21:01.465Z,2.25
2018-07-17T12:23:30.392Z,3.25
2018-07-17T12:25:59.670Z,2.90
2018-07-17T12:28:27.820Z,3.27
2018-07-17T12:30:56.092Z,3.07
2018-07-17T12:33:24.496Z,2.60
2018-07-17T12:35:52.984Z,2.50
2018-07-17T12:38:21.154Z,2.50
2018-07-17T12:40:49.345Z,2.67
2018-07-17T12:43:17.924Z,2.70
2018-07-17T12:45:46.953Z,2.43
2018-07-17T12:48:15.153Z,2.50
2018-07-17T12:50:45.128Z,2.83
2018-07-17T12:53:13.359Z,2.90
2018-07-17T12:55:42.271Z,3.10
2018-07-17T12:58:10.452Z,2.75
2018-07-17T13:00:38.613Z,2.65
2018-07-17T13:03:07.165Z,2.77
2018-07-17T13:05:35.316Z,2.60
2018-07-17T13:08:04.128Z,2.83
2018-07-17T13:10:32.289Z,2.87
2018-07-17T13:13:00.717Z,2.87
2018-07-17T13:15:29.217Z,2.87
2018-07-17T13:17:58.289Z,3.10
2018-07-17T13:20:26.467Z,2.47
2018-07-17T13:22:54.634Z,2.83
2018-07-17T13:25:22.767Z,2.72
2018-07-17T13:27:51.580Z,2.47
2018-07-17T13:30:19.780Z,2.30
2018-07-17T13:32:47.957Z,2.72
2018-07-17T13:35:16.683Z,2.67
2018-07-17T13:37:45.420Z,2.60
2018-07-17T13:40:14.071Z,3.05
2018-07-17T13:42:41.985Z,2.60
2018-07-17T13:45:11.909Z,3.47
2018-07-17T13:47:40.107Z,2.40
2018-07-17T13:50:08.287Z,2.37
2018-07-17T13:52:36.436Z,2.70
2018-07-17T13:55:06.465Z,2.40
2018-07-17T13:57:34.632Z,2.70
2018-07-17T14:00:04.242Z,2.33
2018-07-17T14:02:32.305Z,2.33
2018-07-17T14:05:01.713Z,2.27
2018-07-17T14:07:30.552Z,2.30
2018-07-17T14:09:59.571Z,2.35
2018-07-17T14:12:28.678Z,2.60
2018-07-17T14:14:56.892Z,2.70
2018-07-17T14:17:25.188Z,2.58
2018-07-17T14:19:53.277Z,2.50
2018-07-17T14:22:22.533Z,2.37
2018-07-17T14:24:50.704Z,2.70
2018-07-17T14:27:18.883Z,2.35
2018-07-17T14:29:48.149Z,2.77
2018-07-17T14:32:16.329Z,2.65
2018-07-17T14:34:44.444Z,2.83
2018-07-17T14:37:13.346Z,3.50
2018-07-17T14:39:41.972Z,2.60
2018-07-17T14:42:10.144Z,2.90
2018-07-17T14:44:38.285Z,3.00
2018-07-17T14:47:06.471Z,2.50
2018-07-17T14:49:34.586Z,3.20
2018-07-17T14:52:02.728Z,3.03
2018-07-17T14:54:30.940Z,2.93
2018-07-17T14:56:59.906Z,2.83
2018-07-17T14:59:29.037Z,2.80
2018-07-17T15:01:57.146Z,2.37
2018-07-17T15:04:25.307Z,2.83
2018-07-17T15:06:53.448Z,2.90
2018-07-17T15:09:21.587Z,2.37
2018-07-17T15:11:49.739Z,2.50
2018-07-17T15:14:17.923Z,2.47
2018-07-17T15:16:47.128Z,2.27
2018-07-17T15:19:15.288Z,2.30
2018-07-17T15:21:43.433Z,2.07
2018-07-17T15:24:11.837Z,2.50
2018-07-17T15:26:40.010Z,3.00
2018-07-17T15:29:08.216Z,2.87
2018-07-17T15:31:37.112Z,2.83
2018-07-17T15:34:05.367Z,3.30
2018-07-17T15:36:33.516Z,3.40
2018-07-17T15:39:07.253Z,3.43
2018-07-17T15:41:36.141Z,3.10
2018-07-17T15:44:04.686Z,2.80
2018-07-17T15:46:34.062Z,3.20
2018-07-17T15:49:02.988Z,2.23
2018-07-17T15:51:39.851Z,2.50
2018-07-17T16:37:27.322Z,2.50
2018-07-17T16:39:55.539Z,1.70
2018-07-17T16:42:23.886Z,2.07
2018-07-17T16:44:52.063Z,2.10
2018-07-17T16:47:20.532Z,1.63
2018-07-17T16:49:48.672Z,2.00
2018-07-17T16:52:17.548Z,1.70
2018-07-17T16:54:46.594Z,1.70
2018-07-17T16:57:14.736Z,1.77
2018-07-17T16:59:42.893Z,1.80
2018-07-17T17:02:11.084Z,2.53
2018-07-17T17:04:39.329Z,2.57
2018-07-17T17:07:08.438Z,1.53
2018-07-17T17:09:36.593Z,1.80
2018-07-17T17:12:06.301Z,1.27
2018-07-17T17:14:34.495Z,1.50
2018-07-17T17:17:02.680Z,1.50
2018-07-17T17:19:30.860Z,1.57
2018-07-17T17:21:59.335Z,1.40
2018-07-17T17:24:28.466Z,1.63
2018-07-17T17:26:56.532Z,1.63
2018-07-17T17:29:24.739Z,1.67
2018-07-17T17:31:54.030Z,1.50
2018-07-17T17:34:22.138Z,1.50
2018-07-17T17:36:51.196Z,1.60
2018-07-17T17:39:19.646Z,1.33
2018-07-17T17:41:47.760Z,1.47
2018-07-17T17:44:16.438Z,1.40
2018-07-17T17:46:44.989Z,1.67
2018-07-17T17:49:13.792Z,1.50
2018-07-17T17:51:42.487Z,1.33
2018-07-17T17:54:11.237Z,1.43
2018-07-17T17:56:39.676Z,1.50
2018-07-17T17:59:07.828Z,1.87
2018-07-17T18:01:36.900Z,1.67
2018-07-17T18:04:06.115Z,1.50
2018-07-17T18:06:34.261Z,1.60
2018-07-17T18:09:03.587Z,1.73
2018-07-17T18:11:31.728Z,1.60
2018-07-17T18:13:59.881Z,1.50
2018-07-17T18:16:28.067Z,1.50
2018-07-17T18:18:56.784Z,1.80
2018-07-17T18:21:25.348Z,1.80
2018-07-17T18:23:53.560Z,1.80
2018-07-17T18:26:22.525Z,1.80
2018-07-17T18:28:50.705Z,1.77
2018-07-17T18:31:19.213Z,1.87
2018-07-17T18:33:48.479Z,1.67
2018-07-17T18:36:17.499Z,2.10
2018-07-17T18:38:46.679Z,1.83
2018-07-17T18:41:14.870Z,1.47
2018-07-17T18:43:43.969Z,1.97
2018-07-17T18:46:12.882Z,2.00
2018-07-17T18:48:45.276Z,1.83
2018-07-17T18:51:13.509Z,1.70
2018-07-17T18:53:41.524Z,1.67
2018-07-17T18:56:10.727Z,1.63
2018-07-17T18:58:38.876Z,1.90
2018-07-17T19:01:07.035Z,2.20
2018-07-17T19:03:34.992Z,2.00
2018-07-17T19:06:02.961Z,2.07
2018-07-17T19:08:31.065Z,2.30
2018-07-17T19:10:59.246Z,1.87
2018-07-17T19:13:27.352Z,1.83
2018-07-17T19:15:56.490Z,2.00
2018-07-17T19:18:24.669Z,2.00
2018-07-17T19:20:52.951Z,2.70
2018-07-17T19:23:21.208Z,2.67
2018-07-17T19:25:50.424Z,2.60
2018-07-17T19:28:19.064Z,2.97
2018-07-17T19:30:47.237Z,2.83
2018-07-17T19:33:15.408Z,3.13
2018-07-17T19:35:44.297Z,3.30
2018-07-17T19:38:12.449Z,2.93
2018-07-17T19:40:41.341Z,3.17
2018-07-17T19:43:10.252Z,2.80
2018-07-17T19:45:38.444Z,2.97
2018-07-17T19:48:07.229Z,3.27
2018-07-17T19:50:36.196Z,3.10
2018-07-17T19:53:07.521Z,2.67
2018-07-17T19:55:36.484Z,3.00
2018-07-17T19:58:04.655Z,3.93
2018-07-17T20:00:33.965Z,2.80
2018-07-17T20:03:02.139Z,3.37
2018-07-17T20:05:30.884Z,3.43
2018-07-17T20:07:59.129Z,3.60
2018-07-17T20:10:27.760Z,3.30
2018-07-17T20:12:55.923Z,3.00
2018-07-17T20:15:24.108Z,3.07
2018-07-17T20:17:52.223Z,2.87
2018-07-17T20:20:20.398Z,3.80
2018-07-17T20:22:48.589Z,5.63
2018-07-17T20:25:17.613Z,2.90
2018-07-17T20:27:46.578Z,3.70
2018-07-17T20:30:14.995Z,2.67
2018-07-17T20:32:43.491Z,3.03
2018-07-17T20:35:12.698Z,3.00
2018-07-17T20:37:42.354Z,3.03
2018-07-17T20:40:11.359Z,2.60
2018-07-17T20:42:39.824Z,2.83
2018-07-17T20:45:08.900Z,2.73
2018-07-17T20:47:37.061Z,2.70
2018-07-17T20:50:05.320Z,2.93
2018-07-17T20:52:33.531Z,2.43
2018-07-17T20:55:02.209Z,2.30
2018-07-17T20:57:30.780Z,2.60
2018-07-17T20:59:58.933Z,2.50
2018-07-17T21:02:27.119Z,2.43
2018-07-17T21:04:55.400Z,2.27
2018-07-17T21:07:23.548Z,2.23
2018-07-17T21:09:52.048Z,2.50
2018-07-17T21:12:21.080Z,2.80
2018-07-17T21:14:49.546Z,2.60
2018-07-17T21:17:17.696Z,2.97
2018-07-17T21:19:45.837Z,2.10
2018-07-17T21:22:14.037Z,1.97
2018-07-17T21:24:43.719Z,2.30
2018-07-17T21:27:11.875Z,2.23
2018-07-17T21:29:40.884Z,2.93
2018-07-17T21:32:09.514Z,2.33
2018-07-17T21:34:39.034Z,2.57
2018-07-17T21:37:07.257Z,2.50
2018-07-17T21:39:35.390Z,2.70
2018-07-17T21:42:04.007Z,2.20
2018-07-17T21:44:32.377Z,2.70
2018-07-17T21:47:00.825Z,2.80
2018-07-17T21:49:29.005Z,2.40
2018-07-17T21:51:58.536Z,2.43
2018-07-17T21:54:26.676Z,2.20
2018-07-17T21:56:54.843Z,2.30
2018-07-17T21:59:23.251Z,2.20
2018-07-17T22:01:51.464Z,2.20
2018-07-17T22:04:19.628Z,2.07
2018-07-17T22:06:48.090Z,2.50
2018-07-17T22:09:17.235Z,2.23
2018-07-17T22:11:45.704Z,2.10
2018-07-17T22:14:13.859Z,2.03
2018-07-17T22:16:42.070Z,2.10
2018-07-17T22:19:11.241Z,2.63
2018-07-17T22:21:39.806Z,2.17
2018-07-17T22:24:07.998Z,2.40
2018-07-17T22:26:36.669Z,2.40
2018-07-17T22:29:04.862Z,2.30
2018-07-17T22:31:33.073Z,2.27
2018-07-17T22:34:01.232Z,2.30
2018-07-17T22:36:29.419Z,2.57
2018-07-17T22:38:57.970Z,2.63
2018-07-17T22:41:27.137Z,2.40
2018-07-17T22:43:55.609Z,2.20
2018-07-17T22:46:24.392Z,2.93
2018-07-17T22:48:53.455Z,3.20
2018-07-17T22:51:21.596Z,2.73
2018-07-17T22:53:49.803Z,3.17
2018-07-17T22:56:18.576Z,2.63
2018-07-17T22:58:48.308Z,2.33
2018-07-17T23:01:17.308Z,2.93
2018-07-17T23:03:46.496Z,2.57
2018-07-17T23:06:14.633Z,3.00
2018-07-17T23:08:42.789Z,3.07
2018-07-17T23:11:10.932Z,3.17
2018-07-17T23:13:39.100Z,2.67
2018-07-17T23:16:07.292Z,2.70
2018-07-17T23:18:36.127Z,2.90
2018-07-17T23:21:04.313Z,2.40
2018-07-17T23:23:33.347Z,2.60
2018-07-17T23:26:02.604Z,2.60
2018-07-17T23:28:30.794Z,2.47
2018-07-17T23:30:58.905Z,2.87
2018-07-17T23:33:28.488Z,2.53
2018-07-17T23:35:57.005Z,3.20
2018-07-17T23:38:25.623Z,3.00
2018-07-17T23:40:54.478Z,2.87
2018-07-17T23:43:22.648Z,2.80
2018-07-17T23:45:51.211Z,3.77
2018-07-17T23:48:21.095Z,3.23
2018-07-17T23:50:51.008Z,3.60
2018-07-17T23:53:42.249Z,2.87
2018-07-17T23:56:10.433Z,2.97
2018-07-17T23:58:38.721Z,3.50
